sensor_id;sensor_type;location;lat;lon;timestamp;P1;durP1;ratioP1;P2;durP2;ratioP2
60306;SDS011;46155;52.364;6.580;2022-12-18T04:01:10;45.03;;;16.27;;
60306;SDS011;46155;52.364;6.580;2022-12-18T04:03:38;40.47;;;16.42;;
60306;SDS011;46155;52.364;6.580;2022-12-18T04:06:04;38.58;;;15.35;;
60306;SDS011;46155;52.364;6.580;2022-12-18T04:08:31;53.00;;;17.27;;
60306;SDS011;46155;52.364;6.580;2022-12-18T04:10:59;43.67;;;16.98;;
60306;SDS011;46155;52.364;6.580;2022-12-18T04:13:28;43.17;;;17.27;;
60306;SDS011;46155;52.364;6.580;2022-12-18T04:15:56;35.88;;;14.77;;
60306;SDS011;46155;52.364;6.580;2022-12-18T04:18:22;41.60;;;15.77;;
60306;SDS011;46155;52.364;6.580;2022-12-18T04:20:47;39.30;;;15.43;;
60306;SDS011;46155;52.364;6.580;2022-12-18T04:23:12;43.00;;;16.87;;
60306;SDS011;46155;52.364;6.580;2022-12-18T04:25:38;41.77;;;16.30;;
60306;SDS011;46155;52.364;6.580;2022-12-18T04:28:03;42.63;;;17.43;;
60306;SDS011;46155;52.364;6.580;2022-12-18T04:30:28;47.33;;;16.57;;
60306;SDS011;46155;52.364;6.580;2022-12-18T04:32:54;57.63;;;18.10;;
60306;SDS011;46155;52.364;6.580;2022-12-18T04:35:19;39.30;;;15.60;;
60306;SDS011;46155;52.364;6.580;2022-12-18T04:37:44;35.77;;;15.27;;
60306;SDS011;46155;52.364;6.580;2022-12-18T04:40:10;38.23;;;16.77;;
60306;SDS011;46155;52.364;6.580;2022-12-18T04:42:36;39.95;;;14.88;;
60306;SDS011;46155;52.364;6.580;2022-12-18T04:45:01;28.33;;;14.70;;
60306;SDS011;46155;52.364;6.580;2022-12-18T04:47:26;45.00;;;15.63;;
60306;SDS011;46155;52.364;6.580;2022-12-18T04:49:51;24.30;;;14.43;;
60306;SDS011;46155;52.364;6.580;2022-12-18T04:52:17;46.67;;;15.90;;
60306;SDS011;46155;52.364;6.580;2022-12-18T04:54:42;42.07;;;15.30;;
60306;SDS011;46155;52.364;6.580;2022-12-18T04:57:07;38.77;;;16.13;;
60306;SDS011;46155;52.364;6.580;2022-12-18T04:59:33;34.10;;;14.33;;
60306;SDS011;46155;52.364;6.580;2022-12-18T05:01:58;34.20;;;14.83;;
60306;SDS011;46155;52.364;6.580;2022-12-18T05:04:23;40.60;;;14.63;;
60306;SDS011;46155;52.364;6.580;2022-12-18T05:06:49;36.23;;;15.20;;
60306;SDS011;46155;52.364;6.580;2022-12-18T05:09:14;36.10;;;16.00;;
60306;SDS011;46155;52.364;6.580;2022-12-18T05:11:39;31.27;;;14.90;;
60306;SDS011;46155;52.364;6.580;2022-12-18T05:14:05;38.70;;;14.80;;
60306;SDS011;46155;52.364;6.580;2022-12-18T05:16:30;33.83;;;14.73;;
60306;SDS011;46155;52.364;6.580;2022-12-18T05:18:55;33.23;;;15.30;;
60306;SDS011;46155;52.364;6.580;2022-12-18T05:21:20;36.80;;;14.50;;
60306;SDS011;46155;52.364;6.580;2022-12-18T05:23:46;32.83;;;15.30;;
60306;SDS011;46155;52.364;6.580;2022-12-18T05:26:14;31.60;;;12.50;;
60306;SDS011;46155;52.364;6.580;2022-12-18T05:28:41;36.45;;;13.90;;
60306;SDS011;46155;52.364;6.580;2022-12-18T05:31:06;32.30;;;14.93;;
60306;SDS011;46155;52.364;6.580;2022-12-18T05:33:32;32.03;;;14.17;;
60306;SDS011;46155;52.364;6.580;2022-12-18T05:36:00;24.00;;;13.25;;
60306;SDS011;46155;52.364;6.580;2022-12-18T05:38:26;32.25;;;13.65;;
60306;SDS011;46155;52.364;6.580;2022-12-18T05:40:52;28.35;;;13.13;;
60306;SDS011;46155;52.364;6.580;2022-12-18T05:43:18;36.38;;;13.55;;
60306;SDS011;46155;52.364;6.580;2022-12-18T05:45:44;32.40;;;13.05;;
60306;SDS011;46155;52.364;6.580;2022-12-18T05:48:10;41.47;;;15.47;;
60306;SDS011;46155;52.364;6.580;2022-12-18T05:50:37;32.33;;;12.88;;
60306;SDS011;46155;52.364;6.580;2022-12-18T05:53:04;36.53;;;13.95;;
60306;SDS011;46155;52.364;6.580;2022-12-18T05:55:34;29.13;;;11.70;;
60306;SDS011;46155;52.364;6.580;2022-12-18T05:58:00;31.75;;;13.35;;
60306;SDS011;46155;52.364;6.580;2022-12-18T06:00:26;23.83;;;13.13;;
60306;SDS011;46155;52.364;6.580;2022-12-18T06:02:51;28.80;;;11.70;;
60306;SDS011;46155;52.364;6.580;2022-12-18T06:05:16;27.90;;;12.30;;
60306;SDS011;46155;52.364;6.580;2022-12-18T06:07:42;28.93;;;12.47;;
60306;SDS011;46155;52.364;6.580;2022-12-18T06:10:07;31.70;;;12.60;;
60306;SDS011;46155;52.364;6.580;2022-12-18T06:12:32;26.47;;;12.10;;
60306;SDS011;46155;52.364;6.580;2022-12-18T06:15:01;29.63;;;13.50;;
60306;SDS011;46155;52.364;6.580;2022-12-18T06:17:30;28.37;;;12.30;;
60306;SDS011;46155;52.364;6.580;2022-12-18T06:19:56;25.73;;;13.18;;
60306;SDS011;46155;52.364;6.580;2022-12-18T06:22:21;39.23;;;12.60;;
60306;SDS011;46155;52.364;6.580;2022-12-18T06:24:47;25.63;;;11.40;;
60306;SDS011;46155;52.364;6.580;2022-12-18T06:27:12;24.50;;;11.03;;
60306;SDS011;46155;52.364;6.580;2022-12-18T06:29:37;25.40;;;11.07;;
60306;SDS011;46155;52.364;6.580;2022-12-18T06:32:03;44.33;;;13.57;;
60306;SDS011;46155;52.364;6.580;2022-12-18T06:34:28;26.90;;;13.80;;
60306;SDS011;46155;52.364;6.580;2022-12-18T06:36:53;29.67;;;13.43;;
60306;SDS011;46155;52.364;6.580;2022-12-18T06:39:19;29.77;;;11.80;;
60306;SDS011;46155;52.364;6.580;2022-12-18T06:41:44;28.43;;;12.67;;
60306;SDS011;46155;52.364;6.580;2022-12-18T06:44:09;29.70;;;12.80;;
60306;SDS011;46155;52.364;6.580;2022-12-18T06:46:35;38.93;;;13.77;;
60306;SDS011;46155;52.364;6.580;2022-12-18T06:49:00;28.87;;;13.80;;
60306;SDS011;46155;52.364;6.580;2022-12-18T06:51:25;32.13;;;11.40;;
60306;SDS011;46155;52.364;6.580;2022-12-18T06:53:51;29.60;;;12.87;;
60306;SDS011;46155;52.364;6.580;2022-12-18T06:56:16;30.67;;;13.47;;
60306;SDS011;46155;52.364;6.580;2022-12-18T06:58:42;33.93;;;14.13;;
60306;SDS011;46155;52.364;6.580;2022-12-18T07:01:08;25.27;;;11.90;;
60306;SDS011;46155;52.364;6.580;2022-12-18T07:03:35;27.80;;;12.23;;
60306;SDS011;46155;52.364;6.580;2022-12-18T07:06:01;30.17;;;11.00;;
60306;SDS011;46155;52.364;6.580;2022-12-18T07:08:28;21.73;;;11.77;;
60306;SDS011;46155;52.364;6.580;2022-12-18T07:10:54;26.38;;;13.60;;
60306;SDS011;46155;52.364;6.580;2022-12-18T07:13:19;25.87;;;10.27;;
60306;SDS011;46155;52.364;6.580;2022-12-18T07:15:44;23.47;;;11.60;;
60306;SDS011;46155;52.364;6.580;2022-12-18T07:18:10;26.17;;;12.87;;
60306;SDS011;46155;52.364;6.580;2022-12-18T07:20:35;24.80;;;11.37;;
60306;SDS011;46155;52.364;6.580;2022-12-18T07:23:04;22.73;;;11.70;;
60306;SDS011;46155;52.364;6.580;2022-12-18T07:25:30;22.77;;;10.70;;
60306;SDS011;46155;52.364;6.580;2022-12-18T07:27:59;27.70;;;12.52;;
60306;SDS011;46155;52.364;6.580;2022-12-18T07:30:25;22.50;;;11.03;;
60306;SDS011;46155;52.364;6.580;2022-12-18T07:32:50;17.40;;;10.27;;
60306;SDS011;46155;52.364;6.580;2022-12-18T07:35:15;27.27;;;10.10;;
60306;SDS011;46155;52.364;6.580;2022-12-18T07:37:41;22.53;;;10.97;;
60306;SDS011;46155;52.364;6.580;2022-12-18T07:40:07;22.02;;;9.52;;
60306;SDS011;46155;52.364;6.580;2022-12-18T07:42:33;17.00;;;9.30;;
60306;SDS011;46155;52.364;6.580;2022-12-18T07:44:59;23.52;;;10.02;;
60306;SDS011;46155;52.364;6.580;2022-12-18T07:47:26;16.73;;;9.30;;
60306;SDS011;46155;52.364;6.580;2022-12-18T07:49:52;22.58;;;10.80;;
60306;SDS011;46155;52.364;6.580;2022-12-18T07:52:18;20.70;;;10.30;;
60306;SDS011;46155;52.364;6.580;2022-12-18T07:54:43;16.47;;;9.17;;
60306;SDS011;46155;52.364;6.580;2022-12-18T07:57:08;19.60;;;11.27;;
60306;SDS011;46155;52.364;6.580;2022-12-18T07:59:34;23.57;;;11.60;;
60306;SDS011;46155;52.364;6.580;2022-12-18T08:02:00;17.63;;;10.27;;
60306;SDS011;46155;52.364;6.580;2022-12-18T08:04:25;20.67;;;9.90;;
60306;SDS011;46155;52.364;6.580;2022-12-18T08:06:51;28.93;;;10.77;;
60306;SDS011;46155;52.364;6.580;2022-12-18T08:09:16;20.87;;;10.47;;
60306;SDS011;46155;52.364;6.580;2022-12-18T08:11:42;32.77;;;13.10;;
60306;SDS011;46155;52.364;6.580;2022-12-18T08:14:07;23.17;;;12.53;;
60306;SDS011;46155;52.364;6.580;2022-12-18T08:16:32;24.60;;;11.00;;
60306;SDS011;46155;52.364;6.580;2022-12-18T08:18:58;27.20;;;11.83;;
60306;SDS011;46155;52.364;6.580;2022-12-18T08:21:25;21.87;;;10.50;;
60306;SDS011;46155;52.364;6.580;2022-12-18T08:23:56;25.85;;;12.55;;
60306;SDS011;46155;52.364;6.580;2022-12-18T08:26:22;18.77;;;10.35;;
60306;SDS011;46155;52.364;6.580;2022-12-18T08:28:49;20.05;;;10.23;;
60306;SDS011;46155;52.364;6.580;2022-12-18T08:31:15;23.48;;;11.38;;
60306;SDS011;46155;52.364;6.580;2022-12-18T08:33:41;19.27;;;10.37;;
60306;SDS011;46155;52.364;6.580;2022-12-18T08:36:07;18.93;;;10.17;;
60306;SDS011;46155;52.364;6.580;2022-12-18T08:38:34;21.13;;;11.02;;
60306;SDS011;46155;52.364;6.580;2022-12-18T08:43:29;22.67;;;11.25;;
60306;SDS011;46155;52.364;6.580;2022-12-18T08:46:12;20.17;;;10.40;;
60306;SDS011;46155;52.364;6.580;2022-12-18T08:48:41;21.95;;;9.57;;
60306;SDS011;46155;52.364;6.580;2022-12-18T08:51:07;21.53;;;11.03;;
60306;SDS011;46155;52.364;6.580;2022-12-18T08:53:34;19.73;;;11.07;;
60306;SDS011;46155;52.364;6.580;2022-12-18T08:56:00;22.00;;;10.90;;
60306;SDS011;46155;52.364;6.580;2022-12-18T08:58:25;17.73;;;9.47;;
60306;SDS011;46155;52.364;6.580;2022-12-18T09:00:50;21.70;;;11.73;;
60306;SDS011;46155;52.364;6.580;2022-12-18T09:03:16;19.57;;;11.93;;
60306;SDS011;46155;52.364;6.580;2022-12-18T09:05:43;24.92;;;11.60;;
60306;SDS011;46155;52.364;6.580;2022-12-18T09:08:10;26.60;;;10.75;;
60306;SDS011;46155;52.364;6.580;2022-12-18T09:10:42;22.80;;;11.90;;
60306;SDS011;46155;52.364;6.580;2022-12-18T09:13:09;18.48;;;11.25;;
60306;SDS011;46155;52.364;6.580;2022-12-18T09:15:40;16.27;;;10.40;;
60306;SDS011;46155;52.364;6.580;2022-12-18T09:18:10;16.75;;;9.57;;
60306;SDS011;46155;52.364;6.580;2022-12-18T09:20:37;20.23;;;10.20;;
60306;SDS011;46155;52.364;6.580;2022-12-18T09:23:02;16.20;;;9.60;;
60306;SDS011;46155;52.364;6.580;2022-12-18T09:25:29;17.10;;;9.13;;
60306;SDS011;46155;52.364;6.580;2022-12-18T09:28:01;17.60;;;9.45;;
60306;SDS011;46155;52.364;6.580;2022-12-18T09:30:28;16.58;;;9.35;;
60306;SDS011;46155;52.364;6.580;2022-12-18T09:32:53;21.57;;;9.77;;
60306;SDS011;46155;52.364;6.580;2022-12-18T09:35:18;16.57;;;9.17;;
60306;SDS011;46155;52.364;6.580;2022-12-18T09:37:44;16.60;;;8.90;;
60306;SDS011;46155;52.364;6.580;2022-12-18T09:40:13;20.03;;;9.13;;
60306;SDS011;46155;52.364;6.580;2022-12-18T09:42:39;21.83;;;9.18;;
60306;SDS011;46155;52.364;6.580;2022-12-18T09:45:05;15.00;;;8.07;;
60306;SDS011;46155;52.364;6.580;2022-12-18T09:47:37;13.57;;;9.20;;
60306;SDS011;46155;52.364;6.580;2022-12-18T09:50:05;17.00;;;9.13;;
60306;SDS011;46155;52.364;6.580;2022-12-18T09:52:45;14.57;;;8.38;;
60306;SDS011;46155;52.364;6.580;2022-12-18T10:00:48;12.75;;;7.80;;
60306;SDS011;46155;52.364;6.580;2022-12-18T10:03:19;17.65;;;8.82;;
60306;SDS011;46155;52.364;6.580;2022-12-18T10:09:20;15.70;;;8.23;;
60306;SDS011;46155;52.364;6.580;2022-12-18T10:12:13;17.17;;;9.98;;
60306;SDS011;46155;52.364;6.580;2022-12-18T10:15:02;10.65;;;7.93;;
60306;SDS011;46155;52.364;6.580;2022-12-18T10:20:10;10.83;;;8.03;;
60306;SDS011;46155;52.364;6.580;2022-12-18T10:25:51;11.40;;;8.50;;
60306;SDS011;46155;52.364;6.580;2022-12-18T10:28:20;12.27;;;8.23;;
60306;SDS011;46155;52.364;6.580;2022-12-18T10:30:47;15.18;;;7.93;;
60306;SDS011;46155;52.364;6.580;2022-12-18T10:33:19;13.33;;;7.90;;
60306;SDS011;46155;52.364;6.580;2022-12-18T10:35:48;18.25;;;8.38;;
60306;SDS011;46155;52.364;6.580;2022-12-18T10:40:48;13.00;;;6.83;;
60306;SDS011;46155;52.364;6.580;2022-12-18T10:43:19;14.95;;;8.32;;
60306;SDS011;46155;52.364;6.580;2022-12-18T10:48:25;17.63;;;7.97;;
60306;SDS011;46155;52.364;6.580;2022-12-18T10:50:51;16.00;;;8.43;;
60306;SDS011;46155;52.364;6.580;2022-12-18T10:53:19;11.93;;;7.85;;
60306;SDS011;46155;52.364;6.580;2022-12-18T10:55:47;14.75;;;8.05;;
60306;SDS011;46155;52.364;6.580;2022-12-18T10:58:27;12.20;;;7.28;;
60306;SDS011;46155;52.364;6.580;2022-12-18T11:03:45;15.18;;;7.72;;
60306;SDS011;46155;52.364;6.580;2022-12-18T11:06:13;17.73;;;7.65;;
60306;SDS011;46155;52.364;6.580;2022-12-18T11:08:41;17.25;;;8.10;;
60306;SDS011;46155;52.364;6.580;2022-12-18T11:11:21;22.67;;;8.50;;
60306;SDS011;46155;52.364;6.580;2022-12-18T11:13:54;14.82;;;8.00;;
60306;SDS011;46155;52.364;6.580;2022-12-18T11:16:22;21.50;;;7.80;;
60306;SDS011;46155;52.364;6.580;2022-12-18T11:18:48;11.75;;;7.65;;
60306;SDS011;46155;52.364;6.580;2022-12-18T11:21:14;18.43;;;8.40;;
60306;SDS011;46155;52.364;6.580;2022-12-18T11:23:46;13.00;;;7.60;;
60306;SDS011;46155;52.364;6.580;2022-12-18T11:26:17;18.02;;;8.80;;
60306;SDS011;46155;52.364;6.580;2022-12-18T11:28:44;15.68;;;8.02;;
60306;SDS011;46155;52.364;6.580;2022-12-18T11:31:27;12.63;;;7.00;;
60306;SDS011;46155;52.364;6.580;2022-12-18T11:36:24;17.03;;;8.93;;
60306;SDS011;46155;52.364;6.580;2022-12-18T11:38:53;15.20;;;8.00;;
60306;SDS011;46155;52.364;6.580;2022-12-18T11:41:25;20.73;;;14.90;;
60306;SDS011;46155;52.364;6.580;2022-12-18T11:44:24;18.92;;;11.65;;
60306;SDS011;46155;52.364;6.580;2022-12-18T11:47:00;13.27;;;7.97;;
60306;SDS011;46155;52.364;6.580;2022-12-18T11:49:34;8.13;;;6.67;;
60306;SDS011;46155;52.364;6.580;2022-12-18T11:52:14;15.83;;;7.70;;
60306;SDS011;46155;52.364;6.580;2022-12-18T11:54:40;18.83;;;8.30;;
60306;SDS011;46155;52.364;6.580;2022-12-18T12:00:00;15.93;;;7.50;;
60306;SDS011;46155;52.364;6.580;2022-12-18T12:08:11;15.80;;;6.73;;
60306;SDS011;46155;52.364;6.580;2022-12-18T12:11:10;13.50;;;7.60;;
60306;SDS011;46155;52.364;6.580;2022-12-18T12:22:19;17.13;;;8.70;;
60306;SDS011;46155;52.364;6.580;2022-12-18T12:27:47;21.53;;;8.53;;
60306;SDS011;46155;52.364;6.580;2022-12-18T12:30:36;14.67;;;7.63;;
60306;SDS011;46155;52.364;6.580;2022-12-18T12:35:50;16.10;;;7.80;;
60306;SDS011;46155;52.364;6.580;2022-12-18T12:38:28;13.10;;;7.53;;
60306;SDS011;46155;52.364;6.580;2022-12-18T12:40:59;11.13;;;6.80;;
60306;SDS011;46155;52.364;6.580;2022-12-18T12:46:16;10.27;;;6.93;;
60306;SDS011;46155;52.364;6.580;2022-12-18T12:51:30;14.00;;;6.50;;
60306;SDS011;46155;52.364;6.580;2022-12-18T12:53:59;10.90;;;6.67;;
60306;SDS011;46155;52.364;6.580;2022-12-18T12:56:39;12.90;;;7.23;;
60306;SDS011;46155;52.364;6.580;2022-12-18T13:04:47;23.02;;;13.30;;
60306;SDS011;46155;52.364;6.580;2022-12-18T13:07:19;23.57;;;9.57;;
60306;SDS011;46155;52.364;6.580;2022-12-18T13:16:22;29.23;;;13.47;;
60306;SDS011;46155;52.364;6.580;2022-12-18T13:18:32;46.77;;;18.40;;
60306;SDS011;46155;52.364;6.580;2022-12-18T13:25:49;13.40;;;7.90;;
60306;SDS011;46155;52.364;6.580;2022-12-18T13:28:17;21.80;;;8.80;;
60306;SDS011;46155;52.364;6.580;2022-12-18T13:38:21;23.23;;;7.37;;
60306;SDS011;46155;52.364;6.580;2022-12-18T13:48:23;18.83;;;9.40;;
60306;SDS011;46155;52.364;6.580;2022-12-18T13:50:57;19.73;;;9.23;;
60306;SDS011;46155;52.364;6.580;2022-12-18T13:56:21;23.77;;;10.90;;
60306;SDS011;46155;52.364;6.580;2022-12-18T13:59:05;12.63;;;7.03;;
60306;SDS011;46155;52.364;6.580;2022-12-18T14:01:31;16.10;;;7.70;;
60306;SDS011;46155;52.364;6.580;2022-12-18T14:04:10;11.83;;;7.10;;
60306;SDS011;46155;52.364;6.580;2022-12-18T14:06:36;16.13;;;7.27;;
60306;SDS011;46155;52.364;6.580;2022-12-18T14:09:02;10.00;;;7.07;;
60306;SDS011;46155;52.364;6.580;2022-12-18T14:11:27;22.20;;;10.40;;
60306;SDS011;46155;52.364;6.580;2022-12-18T14:13:54;14.63;;;8.67;;
60306;SDS011;46155;52.364;6.580;2022-12-18T14:16:19;13.30;;;7.17;;
60306;SDS011;46155;52.364;6.580;2022-12-18T14:18:46;11.90;;;7.80;;
60306;SDS011;46155;52.364;6.580;2022-12-18T14:21:38;18.03;;;8.83;;
60306;SDS011;46155;52.364;6.580;2022-12-18T14:24:03;12.87;;;6.97;;
60306;SDS011;46155;52.364;6.580;2022-12-18T14:26:30;15.80;;;7.50;;
60306;SDS011;46155;52.364;6.580;2022-12-18T14:28:58;15.77;;;8.50;;
60306;SDS011;46155;52.364;6.580;2022-12-18T14:31:43;19.07;;;10.27;;
60306;SDS011;46155;52.364;6.580;2022-12-18T14:34:14;10.53;;;6.90;;
60306;SDS011;46155;52.364;6.580;2022-12-18T14:36:41;17.63;;;8.03;;
60306;SDS011;46155;52.364;6.580;2022-12-18T14:39:12;19.07;;;9.60;;
60306;SDS011;46155;52.364;6.580;2022-12-18T14:41:42;13.53;;;8.00;;
60306;SDS011;46155;52.364;6.580;2022-12-18T14:44:07;11.90;;;7.43;;
60306;SDS011;46155;52.364;6.580;2022-12-18T14:46:36;12.13;;;6.93;;
60306;SDS011;46155;52.364;6.580;2022-12-18T14:51:54;18.13;;;9.50;;
60306;SDS011;46155;52.364;6.580;2022-12-18T14:54:31;19.53;;;9.27;;
60306;SDS011;46155;52.364;6.580;2022-12-18T14:57:03;14.03;;;8.83;;
60306;SDS011;46155;52.364;6.580;2022-12-18T14:59:49;16.20;;;8.23;;
60306;SDS011;46155;52.364;6.580;2022-12-18T15:02:26;14.33;;;7.60;;
60306;SDS011;46155;52.364;6.580;2022-12-18T15:04:59;15.67;;;7.27;;
60306;SDS011;46155;52.364;6.580;2022-12-18T15:07:41;10.37;;;7.70;;
60306;SDS011;46155;52.364;6.580;2022-12-18T15:10:11;11.10;;;7.53;;
60306;SDS011;46155;52.364;6.580;2022-12-18T15:18:01;11.33;;;7.40;;
60306;SDS011;46155;52.364;6.580;2022-12-18T15:20:27;16.23;;;8.43;;
60306;SDS011;46155;52.364;6.580;2022-12-18T15:22:56;16.07;;;8.30;;
60306;SDS011;46155;52.364;6.580;2022-12-18T15:25:27;14.97;;;8.83;;
60306;SDS011;46155;52.364;6.580;2022-12-18T15:27:59;12.70;;;7.17;;
60306;SDS011;46155;52.364;6.580;2022-12-18T15:30:24;11.53;;;6.60;;
60306;SDS011;46155;52.364;6.580;2022-12-18T15:32:51;15.33;;;7.77;;
60306;SDS011;46155;52.364;6.580;2022-12-18T15:35:21;14.37;;;8.73;;
60306;SDS011;46155;52.364;6.580;2022-12-18T15:37:48;14.37;;;8.43;;
60306;SDS011;46155;52.364;6.580;2022-12-18T15:40:18;26.00;;;7.20;;
60306;SDS011;46155;52.364;6.580;2022-12-18T15:42:45;15.77;;;9.23;;
60306;SDS011;46155;52.364;6.580;2022-12-18T15:45:30;17.33;;;10.17;;
60306;SDS011;46155;52.364;6.580;2022-12-18T15:47:55;15.63;;;8.40;;
60306;SDS011;46155;52.364;6.580;2022-12-18T15:50:21;13.30;;;9.30;;
60306;SDS011;46155;52.364;6.580;2022-12-18T15:52:48;21.17;;;11.73;;
60306;SDS011;46155;52.364;6.580;2022-12-18T15:55:19;16.23;;;10.17;;
60306;SDS011;46155;52.364;6.580;2022-12-18T15:58:05;14.87;;;8.60;;
60306;SDS011;46155;52.364;6.580;2022-12-18T16:00:31;17.37;;;8.23;;
60306;SDS011;46155;52.364;6.580;2022-12-18T16:02:58;12.57;;;7.90;;
60306;SDS011;46155;52.364;6.580;2022-12-18T16:05:24;13.17;;;8.20;;
60306;SDS011;46155;52.364;6.580;2022-12-18T16:07:50;19.47;;;8.77;;
60306;SDS011;46155;52.364;6.580;2022-12-18T16:10:16;16.20;;;8.90;;
60306;SDS011;46155;52.364;6.580;2022-12-18T16:12:42;17.47;;;7.47;;
60306;SDS011;46155;52.364;6.580;2022-12-18T16:15:08;23.13;;;8.07;;
60306;SDS011;46155;52.364;6.580;2022-12-18T16:17:38;16.30;;;9.43;;
60306;SDS011;46155;52.364;6.580;2022-12-18T16:20:03;14.87;;;10.03;;
60306;SDS011;46155;52.364;6.580;2022-12-18T16:22:29;16.70;;;9.73;;
60306;SDS011;46155;52.364;6.580;2022-12-18T16:24:55;16.50;;;8.17;;
60306;SDS011;46155;52.364;6.580;2022-12-18T16:27:22;15.40;;;8.53;;
60306;SDS011;46155;52.364;6.580;2022-12-18T16:29:48;14.43;;;8.90;;
60306;SDS011;46155;52.364;6.580;2022-12-18T16:32:15;16.77;;;8.87;;
60306;SDS011;46155;52.364;6.580;2022-12-18T16:34:42;17.30;;;11.07;;
60306;SDS011;46155;52.364;6.580;2022-12-18T16:37:09;26.90;;;10.90;;
60306;SDS011;46155;52.364;6.580;2022-12-18T16:39:36;29.43;;;9.83;;
60306;SDS011;46155;52.364;6.580;2022-12-18T16:42:02;16.83;;;8.70;;
60306;SDS011;46155;52.364;6.580;2022-12-18T16:44:30;14.33;;;8.77;;
60306;SDS011;46155;52.364;6.580;2022-12-18T16:46:55;13.60;;;9.13;;
60306;SDS011;46155;52.364;6.580;2022-12-18T16:49:26;15.37;;;8.57;;
60306;SDS011;46155;52.364;6.580;2022-12-18T16:51:52;15.33;;;9.33;;
60306;SDS011;46155;52.364;6.580;2022-12-18T16:54:17;18.27;;;11.63;;
60306;SDS011;46155;52.364;6.580;2022-12-18T16:56:42;15.73;;;10.20;;
60306;SDS011;46155;52.364;6.580;2022-12-18T16:59:09;16.70;;;9.73;;
60306;SDS011;46155;52.364;6.580;2022-12-18T17:01:35;14.70;;;8.13;;
60306;SDS011;46155;52.364;6.580;2022-12-18T17:04:01;28.27;;;12.87;;
60306;SDS011;46155;52.364;6.580;2022-12-18T17:06:29;17.07;;;9.27;;
60306;SDS011;46155;52.364;6.580;2022-12-18T17:08:56;13.67;;;8.40;;
60306;SDS011;46155;52.364;6.580;2022-12-18T17:11:23;12.80;;;8.23;;
60306;SDS011;46155;52.364;6.580;2022-12-18T17:13:50;13.77;;;9.00;;
60306;SDS011;46155;52.364;6.580;2022-12-18T17:16:16;17.47;;;9.37;;
60306;SDS011;46155;52.364;6.580;2022-12-18T17:18:41;19.57;;;9.77;;
60306;SDS011;46155;52.364;6.580;2022-12-18T17:21:08;16.33;;;9.67;;
60306;SDS011;46155;52.364;6.580;2022-12-18T17:23:34;15.20;;;8.27;;
60306;SDS011;46155;52.364;6.580;2022-12-18T17:26:01;14.40;;;8.30;;
60306;SDS011;46155;52.364;6.580;2022-12-18T17:28:28;15.10;;;8.63;;
60306;SDS011;46155;52.364;6.580;2022-12-18T17:30:54;18.60;;;10.17;;
60306;SDS011;46155;52.364;6.580;2022-12-18T17:33:20;19.13;;;11.67;;
60306;SDS011;46155;52.364;6.580;2022-12-18T17:35:46;15.73;;;9.80;;
60306;SDS011;46155;52.364;6.580;2022-12-18T17:38:11;19.13;;;9.57;;
60306;SDS011;46155;52.364;6.580;2022-12-18T17:40:37;14.77;;;9.20;;
60306;SDS011;46155;52.364;6.580;2022-12-18T17:43:04;14.60;;;9.10;;
60306;SDS011;46155;52.364;6.580;2022-12-18T17:45:30;14.27;;;9.00;;
60306;SDS011;46155;52.364;6.580;2022-12-18T17:47:55;15.80;;;9.40;;
60306;SDS011;46155;52.364;6.580;2022-12-18T17:50:21;16.20;;;8.40;;
60306;SDS011;46155;52.364;6.580;2022-12-18T17:52:46;16.87;;;9.17;;
60306;SDS011;46155;52.364;6.580;2022-12-18T17:55:11;16.20;;;9.93;;
60306;SDS011;46155;52.364;6.580;2022-12-18T17:57:37;16.57;;;8.80;;
60306;SDS011;46155;52.364;6.580;2022-12-18T18:00:03;14.43;;;9.10;;
60306;SDS011;46155;52.364;6.580;2022-12-18T18:02:29;17.53;;;9.07;;
60306;SDS011;46155;52.364;6.580;2022-12-18T18:04:55;15.23;;;8.73;;
60306;SDS011;46155;52.364;6.580;2022-12-18T18:07:21;15.23;;;9.10;;
60306;SDS011;46155;52.364;6.580;2022-12-18T18:09:46;11.67;;;8.60;;
60306;SDS011;46155;52.364;6.580;2022-12-18T18:12:11;19.17;;;8.40;;
60306;SDS011;46155;52.364;6.580;2022-12-18T18:14:55;19.47;;;8.67;;
60306;SDS011;46155;52.364;6.580;2022-12-18T18:17:20;16.67;;;9.73;;
60306;SDS011;46155;52.364;6.580;2022-12-18T18:19:45;15.43;;;8.87;;
60306;SDS011;46155;52.364;6.580;2022-12-18T18:22:11;19.33;;;9.60;;
60306;SDS011;46155;52.364;6.580;2022-12-18T18:24:36;18.53;;;10.17;;
60306;SDS011;46155;52.364;6.580;2022-12-18T18:27:02;17.07;;;8.70;;
60306;SDS011;46155;52.364;6.580;2022-12-18T18:29:27;18.13;;;10.07;;
60306;SDS011;46155;52.364;6.580;2022-12-18T18:31:56;14.53;;;8.47;;
60306;SDS011;46155;52.364;6.580;2022-12-18T18:34:23;14.67;;;9.83;;
60306;SDS011;46155;52.364;6.580;2022-12-18T18:36:51;24.97;;;9.60;;
60306;SDS011;46155;52.364;6.580;2022-12-18T18:39:16;17.47;;;9.33;;
60306;SDS011;46155;52.364;6.580;2022-12-18T18:41:42;16.63;;;8.93;;
60306;SDS011;46155;52.364;6.580;2022-12-18T18:44:07;30.60;;;9.63;;
60306;SDS011;46155;52.364;6.580;2022-12-18T18:46:33;18.47;;;10.70;;
60306;SDS011;46155;52.364;6.580;2022-12-18T18:48:59;21.37;;;9.93;;
60306;SDS011;46155;52.364;6.580;2022-12-18T18:51:24;22.47;;;10.43;;
60306;SDS011;46155;52.364;6.580;2022-12-18T18:53:50;16.27;;;9.80;;
60306;SDS011;46155;52.364;6.580;2022-12-18T18:56:17;26.07;;;10.87;;
60306;SDS011;46155;52.364;6.580;2022-12-18T18:58:45;21.20;;;11.53;;
60306;SDS011;46155;52.364;6.580;2022-12-18T19:01:12;23.83;;;11.47;;
60306;SDS011;46155;52.364;6.580;2022-12-18T19:03:40;25.13;;;11.37;;
60306;SDS011;46155;52.364;6.580;2022-12-18T19:06:06;19.77;;;9.00;;
60306;SDS011;46155;52.364;6.580;2022-12-18T19:08:33;18.43;;;10.00;;
60306;SDS011;46155;52.364;6.580;2022-12-18T19:11:02;17.67;;;10.27;;
60306;SDS011;46155;52.364;6.580;2022-12-18T19:13:29;19.20;;;10.90;;
60306;SDS011;46155;52.364;6.580;2022-12-18T19:16:04;21.87;;;10.20;;
60306;SDS011;46155;52.364;6.580;2022-12-18T19:18:32;19.07;;;11.30;;
60306;SDS011;46155;52.364;6.580;2022-12-18T19:21:01;18.27;;;10.67;;
60306;SDS011;46155;52.364;6.580;2022-12-18T19:23:29;22.90;;;11.30;;
60306;SDS011;46155;52.364;6.580;2022-12-18T19:25:58;28.77;;;11.67;;
60306;SDS011;46155;52.364;6.580;2022-12-18T19:28:24;23.40;;;12.13;;
60306;SDS011;46155;52.364;6.580;2022-12-18T19:30:51;19.30;;;11.30;;
60306;SDS011;46155;52.364;6.580;2022-12-18T19:33:19;28.03;;;12.33;;
60306;SDS011;46155;52.364;6.580;2022-12-18T19:35:45;19.30;;;11.57;;
60306;SDS011;46155;52.364;6.580;2022-12-18T19:38:10;24.07;;;11.47;;
60306;SDS011;46155;52.364;6.580;2022-12-18T19:40:39;36.13;;;12.17;;
60306;SDS011;46155;52.364;6.580;2022-12-18T19:43:05;22.37;;;10.83;;
60306;SDS011;46155;52.364;6.580;2022-12-18T19:45:30;26.97;;;12.00;;
60306;SDS011;46155;52.364;6.580;2022-12-18T19:47:57;20.90;;;11.17;;
60306;SDS011;46155;52.364;6.580;2022-12-18T19:50:22;24.97;;;12.33;;
60306;SDS011;46155;52.364;6.580;2022-12-18T19:52:48;22.17;;;11.90;;
60306;SDS011;46155;52.364;6.580;2022-12-18T19:55:13;25.57;;;12.77;;
60306;SDS011;46155;52.364;6.580;2022-12-18T19:57:39;23.87;;;12.50;;
60306;SDS011;46155;52.364;6.580;2022-12-18T20:00:04;28.87;;;12.43;;
60306;SDS011;46155;52.364;6.580;2022-12-18T20:02:30;20.80;;;13.03;;
60306;SDS011;46155;52.364;6.580;2022-12-18T20:05:00;27.07;;;12.63;;
60306;SDS011;46155;52.364;6.580;2022-12-18T20:07:25;23.37;;;12.73;;
60306;SDS011;46155;52.364;6.580;2022-12-18T20:09:50;36.97;;;15.57;;
60306;SDS011;46155;52.364;6.580;2022-12-18T20:12:16;42.87;;;17.13;;